Time;durP1;ratioP1;P1;durP2;ratioP2;P2;SDS_P1;SDS_P2;PMS_P1;PMS_P2;Temp;Humidity;BMP_temperature;BMP_pressure;BME280_temperature;BME280_humidity;BME280_pressure;Samples;Min_cycle;Max_cycle;Signal;HPM_P1;HPM_P2
2022/09/23 00:01:33;;;;;;;19.27;16.23;;;;;;;;;;5111884;28;20074;-64
2022/09/23 00:03:59;;;;;;;18.40;15.48;;;;;;;;;;5112532;28;20355;-64
2022/09/23 00:06:29;;;;;;;19.10;16.08;;;;;;;;;;5094334;28;20031;-64
2022/09/23 00:08:55;;;;;;;18.17;15.15;;;;;;;;;;5112258;28;20135;-64
2022/09/23 00:11:22;;;;;;;19.10;16.55;;;;;;;;;;5112267;28;20058;-64
2022/09/23 00:13:49;;;;;;;18.80;15.60;;;;;;;;;;5112735;28;20035;-64
2022/09/23 00:16:17;;;;;;;18.98;15.88;;;;;;;;;;5112755;28;20051;-64
2022/09/23 00:18:43;;;;;;;18.13;15.93;;;;;;;;;;5112232;28;20039;-64
2022/09/23 00:21:10;;;;;;;17.17;15.45;;;;;;;;;;5112540;28;20047;-64
2022/09/23 00:23:37;;;;;;;20.45;16.05;;;;;;;;;;5112114;28;20044;-64
2022/09/23 00:26:05;;;;;;;18.35;16.52;;;;;;;;;;5111852;28;20035;-64
2022/09/23 00:28:32;;;;;;;18.08;16.10;;;;;;;;;;5112344;28;20132;-64
2022/09/23 00:31:02;;;;;;;18.25;16.40;;;;;;;;;;5111088;28;20043;-64
2022/09/23 00:33:28;;;;;;;17.92;15.38;;;;;;;;;;5111946;28;20077;-65
2022/09/23 00:35:58;;;;;;;17.98;16.08;;;;;;;;;;5112164;28;20047;-65
2022/09/23 00:38:24;;;;;;;18.45;16.45;;;;;;;;;;5112233;28;20055;-65
2022/09/23 00:40:50;;;;;;;18.75;16.38;;;;;;;;;;5111663;28;20035;-65
2022/09/23 00:43:16;;;;;;;18.95;16.98;;;;;;;;;;5112203;28;20215;-65
2022/09/23 00:45:46;;;;;;;19.38;16.85;;;;;;;;;;5112245;28;20035;-65
2022/09/23 00:48:15;;;;;;;21.38;16.90;;;;;;;;;;5111410;28;20130;-65
2022/09/23 00:50:43;;;;;;;20.40;17.75;;;;;;;;;;5112087;28;20043;-65
2022/09/23 00:53:12;;;;;;;19.85;17.75;;;;;;;;;;5112130;28;20148;-65
2022/09/23 00:56:06;;;;;;;18.75;16.73;;;;;;;;;;5111672;28;20116;-65
2022/09/23 00:58:33;;;;;;;20.08;16.70;;;;;;;;;;5108926;28;20087;-65
2022/09/23 01:01:00;;;;;;;19.63;17.63;;;;;;;;;;5111982;28;20524;-65
2022/09/23 01:03:27;;;;;;;19.48;17.02;;;;;;;;;;5110163;28;20044;-65
2022/09/23 01:05:53;;;;;;;20.13;17.88;;;;;;;;;;5111897;28;20074;-65
2022/09/23 01:08:19;;;;;;;19.88;17.38;;;;;;;;;;5111713;28;20031;-65
2022/09/23 01:10:56;;;;;;;23.58;17.20;;;;;;;;;;5110888;28;20074;-65
2022/09/23 01:13:22;;;;;;;18.55;16.50;;;;;;;;;;5111639;28;20432;-65
2022/09/23 01:15:56;;;;;;;20.77;17.90;;;;;;;;;;5111729;28;20067;-65
2022/09/23 01:18:33;;;;;;;22.05;17.77;;;;;;;;;;5111206;28;20042;-65
2022/09/23 01:21:08;;;;;;;19.98;17.80;;;;;;;;;;5111321;28;20092;-65
2022/09/23 01:23:52;;;;;;;19.35;17.35;;;;;;;;;;5111655;28;20031;-65
2022/09/23 01:26:39;;;;;;;19.20;17.20;;;;;;;;;;5111055;28;20042;-65
2022/09/23 01:29:24;;;;;;;19.83;17.60;;;;;;;;;;5109794;28;20145;-65
2022/09/23 01:32:05;;;;;;;19.33;17.35;;;;;;;;;;5110969;28;20039;-65
2022/09/23 01:34:37;;;;;;;19.98;16.75;;;;;;;;;;5111359;28;20043;-65
2022/09/23 01:37:12;;;;;;;21.05;17.85;;;;;;;;;;5111343;28;20042;-65
2022/09/23 01:39:44;;;;;;;18.75;16.95;;;;;;;;;;5110845;28;20043;-65
2022/09/23 01:42:15;;;;;;;19.50;17.58;;;;;;;;;;5111343;28;20142;-65
2022/09/23 01:44:56;;;;;;;19.58;17.60;;;;;;;;;;5111292;28;20078;-65
2022/09/23 01:47:27;;;;;;;21.45;16.65;;;;;;;;;;5110745;28;20086;-65
2022/09/23 01:49:53;;;;;;;19.55;17.55;;;;;;;;;;5111046;28;20043;-65
2022/09/23 01:52:25;;;;;;;19.90;17.85;;;;;;;;;;5111192;28;20032;-65
2022/09/23 01:54:54;;;;;;;22.17;18.13;;;;;;;;;;5110812;28;20035;-65
2022/09/23 01:57:27;;;;;;;20.48;18.38;;;;;;;;;;5111054;28;20039;-65
2022/09/23 01:59:56;;;;;;;18.92;16.45;;;;;;;;;;5111129;28;20039;-65
2022/09/23 02:02:25;;;;;;;19.88;17.85;;;;;;;;;;5110733;28;20084;-65
2022/09/23 02:04:55;;;;;;;21.65;18.42;;;;;;;;;;5110743;28;20043;-65
2022/09/23 02:07:24;;;;;;;20.55;18.40;;;;;;;;;;5110908;28;20046;-65
2022/09/23 02:09:56;;;;;;;19.92;17.50;;;;;;;;;;5110233;28;20200;-65
2022/09/23 02:12:25;;;;;;;20.27;18.10;;;;;;;;;;5110838;28;20122;-65
2022/09/23 02:14:57;;;;;;;20.33;18.13;;;;;;;;;;5111005;28;20047;-65
2022/09/23 02:17:31;;;;;;;20.33;18.15;;;;;;;;;;5110576;28;20027;-65
2022/09/23 02:20:00;;;;;;;20.60;18.50;;;;;;;;;;5111047;28;20695;-65
2022/09/23 02:22:34;;;;;;;20.17;18.23;;;;;;;;;;5092816;28;20047;-65
2022/09/23 02:25:00;;;;;;;21.02;18.00;;;;;;;;;;5094148;28;20583;-65
2022/09/23 02:27:31;;;;;;;20.77;18.67;;;;;;;;;;5114771;28;20050;-65
2022/09/23 02:30:10;;;;;;;21.80;18.55;;;;;;;;;;5114662;28;20577;-65
2022/09/23 02:32:43;;;;;;;21.15;18.38;;;;;;;;;;5114461;28;20039;-65
2022/09/23 02:35:14;;;;;;;24.33;18.48;;;;;;;;;;5114906;28;20521;-65
2022/09/23 02:37:59;;;;;;;21.70;19.08;;;;;;;;;;5114661;28;20047;-65
2022/09/23 02:40:37;;;;;;;20.02;17.88;;;;;;;;;;5114177;28;20136;-65
2022/09/23 02:43:18;;;;;;;21.55;18.88;;;;;;;;;;5114600;28;20063;-65
2022/09/23 02:45:45;;;;;;;21.08;17.75;;;;;;;;;;5114702;28;20040;-65
2022/09/23 02:48:18;;;;;;;19.65;17.67;;;;;;;;;;5114038;28;20043;-65
2022/09/23 02:50:46;;;;;;;21.10;18.75;;;;;;;;;;5114472;28;20047;-65
2022/09/23 02:53:14;;;;;;;21.73;17.35;;;;;;;;;;5114028;28;20043;-65
2022/09/23 02:55:41;;;;;;;19.70;17.60;;;;;;;;;;5114220;28;20054;-65
2022/09/23 02:58:08;;;;;;;21.00;18.10;;;;;;;;;;5113920;28;20050;-65
2022/09/23 03:00:40;;;;;;;20.50;18.30;;;;;;;;;;5114326;28;20036;-65
2022/09/23 03:03:36;;;;;;;23.15;19.38;;;;;;;;;;5114079;28;20035;-65
2022/09/23 03:06:07;;;;;;;21.38;18.13;;;;;;;;;;5092330;28;20150;-65
2022/09/23 03:08:35;;;;;;;19.48;17.42;;;;;;;;;;5113382;28;20584;-65
2022/09/23 03:11:12;;;;;;;20.02;17.92;;;;;;;;;;5113878;28;20173;-65
2022/09/23 03:13:41;;;;;;;19.05;17.08;;;;;;;;;;5113981;28;20043;-65
2022/09/23 03:16:26;;;;;;;22.08;17.80;;;;;;;;;;5113689;28;20035;-65
2022/09/23 03:18:57;;;;;;;21.77;18.75;;;;;;;;;;5113701;28;20058;-65
2022/09/23 03:21:40;;;;;;;20.85;18.35;;;;;;;;;;5113557;28;20048;-65
2022/09/23 03:24:08;;;;;;;22.55;17.75;;;;;;;;;;5113520;28;20064;-65
2022/09/23 03:26:36;;;;;;;20.48;18.20;;;;;;;;;;5127131;27;20069;-65
2022/09/23 03:29:03;;;;;;;18.83;16.90;;;;;;;;;;5134147;27;20042;-65
2022/09/23 03:31:30;;;;;;;21.55;18.25;;;;;;;;;;5133746;27;20069;-65
2022/09/23 03:33:58;;;;;;;25.17;18.23;;;;;;;;;;5134166;27;20039;-65
2022/09/23 03:39:17;;;;;;;20.27;18.17;;;;;;;;;;5133391;27;20055;-65
2022/09/23 03:41:49;;;;;;;20.67;18.52;;;;;;;;;;5134109;27;20039;-65
2022/09/23 03:44:16;;;;;;;21.33;19.02;;;;;;;;;;5133948;27;20404;-65
2022/09/23 03:46:48;;;;;;;21.27;18.92;;;;;;;;;;5133498;27;20046;-65
2022/09/23 03:49:34;;;;;;;20.60;18.45;;;;;;;;;;5133900;27;20099;-65
2022/09/23 03:52:02;;;;;;;23.75;19.33;;;;;;;;;;5133961;27;20039;-65
2022/09/23 03:54:28;;;;;;;25.98;19.63;;;;;;;;;;5133193;27;20082;-65
2022/09/23 03:56:56;;;;;;;21.10;18.38;;;;;;;;;;5115331;27;20043;-65
2022/09/23 03:59:23;;;;;;;21.38;19.10;;;;;;;;;;5133462;27;20054;-65
2022/09/23 04:01:49;;;;;;;21.65;19.45;;;;;;;;;;5133166;27;20032;-65
2022/09/23 04:04:15;;;;;;;20.67;18.42;;;;;;;;;;5123603;27;20110;-65
2022/09/23 04:06:41;;;;;;;20.13;18.00;;;;;;;;;;5112962;28;20038;-65
2022/09/23 04:09:08;;;;;;;19.90;17.17;;;;;;;;;;5112195;28;20064;-65
2022/09/23 04:11:34;;;;;;;24.13;18.73;;;;;;;;;;5112879;28;20104;-65
2022/09/23 04:14:00;;;;;;;21.63;19.02;;;;;;;;;;5112607;28;20038;-65
2022/09/23 04:16:26;;;;;;;21.02;18.33;;;;;;;;;;5112386;28;20040;-65
2022/09/23 04:18:52;;;;;;;21.60;19.30;;;;;;;;;;5112626;28;20035;-65
2022/09/23 04:21:18;;;;;;;20.13;17.75;;;;;;;;;;5094062;28;20366;-65
2022/09/23 04:23:47;;;;;;;21.08;18.40;;;;;;;;;;5112418;28;20039;-65
2022/09/23 04:26:14;;;;;;;21.38;18.73;;;;;;;;;;5122951;27;20114;-65
2022/09/23 04:28:40;;;;;;;20.17;18.08;;;;;;;;;;5132695;27;20130;-65
2022/09/23 04:31:07;;;;;;;22.73;18.13;;;;;;;;;;5132619;27;20093;-65
2022/09/23 04:33:33;;;;;;;21.42;18.48;;;;;;;;;;5114431;27;20043;-65
2022/09/23 04:35:59;;;;;;;20.48;18.27;;;;;;;;;;5133039;27;20090;-65
2022/09/23 04:38:25;;;;;;;21.27;17.98;;;;;;;;;;5132288;27;20469;-65
2022/09/23 04:40:51;;;;;;;21.40;19.02;;;;;;;;;;5114477;27;20389;-65
2022/09/23 04:43:21;;;;;;;20.30;17.95;;;;;;;;;;5132801;27;20039;-65
2022/09/23 04:45:56;;;;;;;18.95;17.02;;;;;;;;;;5132405;27;20043;-65
2022/09/23 04:48:22;;;;;;;20.00;18.00;;;;;;;;;;5132107;27;20047;-65
2022/09/23 04:50:48;;;;;;;22.63;19.33;;;;;;;;;;5132556;27;20046;-65
2022/09/23 04:53:15;;;;;;;21.90;17.98;;;;;;;;;;5131769;27;20039;-65
2022/09/23 04:55:42;;;;;;;24.13;19.60;;;;;;;;;;5132380;27;20148;-65
2022/09/23 04:58:08;;;;;;;25.33;18.85;;;;;;;;;;5132130;27;20043;-65
2022/09/23 05:00:35;;;;;;;23.00;17.88;;;;;;;;;;5131958;27;20039;-65
2022/09/23 05:03:01;;;;;;;19.88;17.75;;;;;;;;;;5132393;27;20039;-65
2022/09/23 05:05:28;;;;;;;29.33;19.13;;;;;;;;;;5112390;27;20042;-65
2022/09/23 05:07:55;;;;;;;21.25;18.95;;;;;;;;;;5111286;28;20134;-65
2022/09/23 05:10:21;;;;;;;25.15;18.95;;;;;;;;;;5111228;28;20438;-65
2022/09/23 05:12:47;;;;;;;24.30;18.90;;;;;;;;;;5092979;28;20035;-65
2022/09/23 05:15:15;;;;;;;22.25;17.88;;;;;;;;;;5104376;28;20055;-64
2022/09/23 05:17:41;;;;;;;19.00;16.48;;;;;;;;;;5110147;28;20039;-64
2022/09/23 05:20:08;;;;;;;22.00;17.83;;;;;;;;;;5092825;28;20067;-64
2022/09/23 05:22:34;;;;;;;21.90;18.98;;;;;;;;;;5110650;28;20031;-64
2022/09/23 05:25:01;;;;;;;20.98;18.48;;;;;;;;;;5110887;28;20039;-64
2022/09/23 05:27:27;;;;;;;22.33;18.30;;;;;;;;;;5119246;27;20046;-64
2022/09/23 05:29:54;;;;;;;19.23;16.63;;;;;;;;;;5131396;27;20042;-64
2022/09/23 05:32:20;;;;;;;20.55;18.05;;;;;;;;;;5114278;27;20803;-64
2022/09/23 05:34:46;;;;;;;23.77;18.70;;;;;;;;;;5111149;28;20035;-64
2022/09/23 05:37:12;;;;;;;21.08;17.98;;;;;;;;;;5110471;28;20276;-64
2022/09/23 05:39:38;;;;;;;19.52;17.52;;;;;;;;;;5110505;28;20533;-64
2022/09/23 05:42:04;;;;;;;20.35;18.15;;;;;;;;;;5110875;28;20032;-64
2022/09/23 05:44:30;;;;;;;19.73;17.58;;;;;;;;;;5110319;28;20071;-64
2022/09/23 05:46:56;;;;;;;22.02;18.08;;;;;;;;;;5111149;28;20081;-64
2022/09/23 05:49:22;;;;;;;21.23;18.60;;;;;;;;;;5092090;28;20078;-64
2022/09/23 05:51:48;;;;;;;23.45;18.88;;;;;;;;;;5110454;28;20035;-65
2022/09/23 05:54:14;;;;;;;22.20;18.55;;;;;;;;;;5091775;28;20123;-64
2022/09/23 05:56:40;;;;;;;18.77;16.70;;;;;;;;;;5110703;28;20123;-65
2022/09/23 05:59:06;;;;;;;23.05;18.63;;;;;;;;;;5110438;28;20054;-65
2022/09/23 06:01:34;;;;;;;23.35;18.70;;;;;;;;;;5096486;28;20031;-65
2022/09/23 06:04:01;;;;;;;24.60;18.67;;;;;;;;;;5114703;28;20032;-64
2022/09/23 06:06:28;;;;;;;23.42;17.55;;;;;;;;;;5113939;28;20223;-64
2022/09/23 06:08:54;;;;;;;21.73;18.00;;;;;;;;;;5114355;28;20071;-64
2022/09/23 06:11:20;;;;;;;20.92;17.83;;;;;;;;;;5114527;28;20106;-64
2022/09/23 06:13:48;;;;;;;20.52;18.30;;;;;;;;;;5114616;28;20169;-65
2022/09/23 06:16:14;;;;;;;21.05;17.90;;;;;;;;;;5114526;28;20048;-65
2022/09/23 06:18:42;;;;;;;22.90;18.20;;;;;;;;;;5114793;28;20039;-65
2022/09/23 06:21:09;;;;;;;20.35;18.23;;;;;;;;;;5114077;28;20032;-65
2022/09/23 06:23:35;;;;;;;19.42;17.33;;;;;;;;;;5114135;28;20039;-64
2022/09/23 06:26:02;;;;;;;22.13;18.33;;;;;;;;;;5114385;28;20032;-64
2022/09/23 06:28:31;;;;;;;23.08;18.10;;;;;;;;;;5114037;28;20118;-64
2022/09/23 06:30:57;;;;;;;22.70;17.63;;;;;;;;;;5113996;28;20512;-64
2022/09/23 06:33:23;;;;;;;22.48;18.20;;;;;;;;;;5114220;28;20156;-64
2022/09/23 06:35:50;;;;;;;20.33;17.55;;;;;;;;;;5113879;28;20405;-64
2022/09/23 06:38:16;;;;;;;22.83;18.10;;;;;;;;;;5113737;28;20113;-64
2022/09/23 06:40:42;;;;;;;20.98;17.63;;;;;;;;;;5095994;28;20042;-65
2022/09/23 06:43:08;;;;;;;20.52;18.15;;;;;;;;;;5113517;28;20390;-64
2022/09/23 06:45:34;;;;;;;23.25;17.40;;;;;;;;;;5100011;28;20035;-64
2022/09/23 06:48:04;;;;;;;19.40;16.67;;;;;;;;;;5113086;28;20045;-64
2022/09/23 06:50:30;;;;;;;23.40;16.83;;;;;;;;;;5107237;28;20079;-64
2022/09/23 06:52:57;;;;;;;21.27;16.60;;;;;;;;;;5114067;28;20039;-64
2022/09/23 06:55:26;;;;;;;18.50;16.33;;;;;;;;;;5113480;28;20149;-65
2022/09/23 06:57:57;;;;;;;19.48;16.48;;;;;;;;;;5113293;28;20036;-64
2022/09/23 07:00:24;;;;;;;18.35;16.00;;;;;;;;;;5113279;28;20065;-64
2022/09/23 07:02:50;;;;;;;18.17;15.23;;;;;;;;;;5113629;28;20118;-65
2022/09/23 07:05:16;;;;;;;19.00;15.15;;;;;;;;;;5112695;28;20608;-64
2022/09/23 07:07:42;;;;;;;17.92;15.32;;;;;;;;;;5094518;28;20043;-64
2022/09/23 07:10:09;;;;;;;20.15;15.02;;;;;;;;;;5090798;28;20052;-64
2022/09/23 07:12:35;;;;;;;18.48;15.40;;;;;;;;;;5094868;28;20083;-64
2022/09/23 07:15:01;;;;;;;17.65;15.52;;;;;;;;;;5113719;28;20188;-64
2022/09/23 07:17:27;;;;;;;20.35;15.98;;;;;;;;;;5113116;28;20094;-64
2022/09/23 07:19:57;;;;;;;18.35;14.48;;;;;;;;;;5094560;28;20128;-64
2022/09/23 07:22:24;;;;;;;20.55;14.75;;;;;;;;;;5113095;28;20214;-64
2022/09/23 07:24:56;;;;;;;20.48;15.27;;;;;;;;;;5112821;28;20031;-65
2022/09/23 07:27:22;;;;;;;;;;;;;;;;;;5112795;28;20036;-65
2022/09/23 07:29:50;;;;;;;19.17;14.20;;;;;;;;;;5112890;28;20020;-65
2022/09/23 07:32:17;;;;;;;21.13;14.80;;;;;;;;;;5112446;28;20122;-65
2022/09/23 07:34:43;;;;;;;19.75;14.65;;;;;;;;;;5111920;28;20055;-65
2022/09/23 07:37:09;;;;;;;17.50;13.98;;;;;;;;;;5112989;28;20055;-65
2022/09/23 07:39:35;;;;;;;17.50;13.35;;;;;;;;;;5112505;28;20386;-65
2022/09/23 07:42:04;;;;;;;18.65;13.85;;;;;;;;;;5112380;28;20565;-64
2022/09/23 07:44:30;;;;;;;18.17;14.23;;;;;;;;;;5103567;28;20429;-64
2022/09/23 07:46:57;;;;;;;18.27;14.73;;;;;;;;;;5111290;28;20050;-65
2022/09/23 07:49:23;;;;;;;17.52;14.57;;;;;;;;;;5111343;28;20408;-65
2022/09/23 07:51:49;;;;;;;20.52;15.15;;;;;;;;;;5111901;28;20381;-65
2022/09/23 07:54:17;;;;;;;18.52;14.75;;;;;;;;;;5111839;28;20039;-65
2022/09/23 07:56:43;;;;;;;18.10;13.68;;;;;;;;;;5109153;27;20282;-65
2022/09/23 07:59:11;;;;;;;20.38;13.48;;;;;;;;;;5111923;28;20137;-65
2022/09/23 08:01:38;;;;;;;15.93;12.77;;;;;;;;;;5111415;28;20047;-65
2022/09/23 08:04:06;;;;;;;18.35;13.82;;;;;;;;;;5108977;28;20585;-65
2022/09/23 08:06:33;;;;;;;19.55;14.82;;;;;;;;;;5111302;28;20704;-64
2022/09/23 08:09:00;;;;;;;21.08;14.55;;;;;;;;;;5111134;28;20059;-61
2022/09/23 08:11:26;;;;;;;18.05;15.07;;;;;;;;;;5106278;27;20052;-63
2022/09/23 08:13:53;;;;;;;18.27;14.63;;;;;;;;;;5090988;28;20089;-63
2022/09/23 08:16:20;;;;;;;20.77;13.52;;;;;;;;;;5107240;28;20043;-63
2022/09/23 08:18:46;;;;;;;20.05;14.20;;;;;;;;;;5111341;27;20057;-61
2022/09/23 08:21:17;;;;;;;16.85;12.85;;;;;;;;;;5119276;27;20477;-62
2022/09/23 08:23:43;;;;;;;16.65;13.88;;;;;;;;;;5122762;27;20035;-62
2022/09/23 08:26:09;;;;;;;17.95;13.48;;;;;;;;;;5120439;27;20747;-63
2022/09/23 08:28:36;;;;;;;18.30;13.93;;;;;;;;;;5120343;27;20043;-62
2022/09/23 08:31:02;;;;;;;15.75;13.55;;;;;;;;;;5126273;27;20035;-59
2022/09/23 08:33:28;;;;;;;18.05;13.65;;;;;;;;;;5115579;27;20043;-62
2022/09/23 08:35:58;;;;;;;18.02;12.45;;;;;;;;;;5095144;27;20035;-61
2022/09/23 08:38:24;;;;;;;16.77;13.73;;;;;;;;;;5108142;27;20535;-62
2022/09/23 08:40:50;;;;;;;18.05;13.35;;;;;;;;;;5111887;27;20481;-61
2022/09/23 08:43:20;;;;;;;18.20;13.45;;;;;;;;;;5119086;27;20054;-62
2022/09/23 08:45:49;;;;;;;16.70;12.98;;;;;;;;;;5112320;27;20039;-63
2022/09/23 08:48:16;;;;;;;14.20;12.63;;;;;;;;;;5109793;28;20431;-62
2022/09/23 08:50:48;;;;;;;16.75;12.82;;;;;;;;;;5121350;27;20055;-62
2022/09/23 08:53:20;;;;;;;18.80;12.57;;;;;;;;;;5110212;28;20062;-62
2022/09/23 08:55:48;;;;;;;14.90;12.05;;;;;;;;;;5109810;28;20701;-66
2022/09/23 08:58:21;;;;;;;17.00;12.63;;;;;;;;;;5107864;28;20039;-65
2022/09/23 09:00:53;;;;;;;15.38;12.27;;;;;;;;;;5107617;28;20047;-65
2022/09/23 09:03:21;;;;;;;14.48;11.82;;;;;;;;;;5109499;28;20058;-65
2022/09/23 09:05:48;;;;;;;13.48;12.07;;;;;;;;;;5116393;27;20031;-65
2022/09/23 09:08:17;;;;;;;17.52;12.52;;;;;;;;;;5110214;27;20113;-64
2022/09/23 09:10:47;;;;;;;18.23;11.88;;;;;;;;;;5090250;28;20072;-65
2022/09/23 09:13:23;;;;;;;15.93;11.63;;;;;;;;;;5109832;28;20043;-65
2022/09/23 09:15:59;;;;;;;14.95;11.40;;;;;;;;;;5108684;27;20137;-66
2022/09/23 09:18:25;;;;;;;15.60;11.68;;;;;;;;;;5110831;27;20044;-66
2022/09/23 09:21:22;;;;;;;16.45;11.68;;;;;;;;;;5110830;27;20035;-65
2022/09/23 09:23:56;;;;;;;13.57;11.13;;;;;;;;;;5109600;27;20493;-65
2022/09/23 09:26:26;;;;;;;12.60;10.57;;;;;;;;;;5113549;27;20181;-65
2022/09/23 09:28:58;;;;;;;16.85;11.40;;;;;;;;;;5116336;27;20410;-65
2022/09/23 09:31:24;;;;;;;13.13;10.95;;;;;;;;;;5118576;27;20090;-65
2022/09/23 09:33:56;;;;;;;18.50;11.40;;;;;;;;;;5115541;27;20044;-66
2022/09/23 09:36:22;;;;;;;15.85;11.57;;;;;;;;;;5111601;27;20105;-65
2022/09/23 09:38:50;;;;;;;17.58;11.45;;;;;;;;;;5116268;27;21651;-65
2022/09/23 09:41:17;;;;;;;15.07;10.75;;;;;;;;;;5108281;28;20054;-65
2022/09/23 09:43:56;;;;;;;13.30;10.93;;;;;;;;;;5111719;27;20580;-65
2022/09/23 09:46:25;;;;;;;16.58;10.88;;;;;;;;;;5111448;27;20055;-65
2022/09/23 09:49:13;;;;;;;16.70;10.80;;;;;;;;;;5112196;28;20035;-65
2022/09/23 09:51:41;;;;;;;12.23;9.57;;;;;;;;;;5102452;28;20051;-66
2022/09/23 09:54:38;;;;;;;15.73;10.70;;;;;;;;;;5101135;28;20099;-60
2022/09/23 09:57:17;;;;;;;15.65;10.68;;;;;;;;;;5092632;28;20078;-60
2022/09/23 09:59:43;;;;;;;16.17;9.93;;;;;;;;;;5114008;28;20528;-59
2022/09/23 10:02:13;;;;;;;11.30;8.93;;;;;;;;;;5109101;28;20042;-63
2022/09/23 10:04:40;;;;;;;14.00;9.70;;;;;;;;;;5108247;28;20155;-63
2022/09/23 10:07:08;;;;;;;13.75;9.68;;;;;;;;;;5107952;28;20036;-62
2022/09/23 10:09:35;;;;;;;15.25;10.00;;;;;;;;;;5107690;28;20059;-62
2022/09/23 10:12:14;;;;;;;13.95;9.73;;;;;;;;;;5114266;28;20358;-62
2022/09/23 10:14:40;;;;;;;14.27;10.18;;;;;;;;;;5105714;28;20156;-63
2022/09/23 10:17:07;;;;;;;13.10;9.70;;;;;;;;;;5107802;28;20087;-63
2022/09/23 10:19:35;;;;;;;13.02;9.27;;;;;;;;;;5108310;28;20042;-62
2022/09/23 10:22:08;;;;;;;10.60;8.77;;;;;;;;;;5109300;28;20377;-62
2022/09/23 10:24:35;;;;;;;11.52;9.10;;;;;;;;;;5109026;28;20075;-62
2022/09/23 10:27:06;;;;;;;14.10;9.50;;;;;;;;;;5106252;28;20135;-63
2022/09/23 10:29:32;;;;;;;12.73;9.30;;;;;;;;;;5107573;28;20113;-67
2022/09/23 10:32:18;;;;;;;11.73;8.98;;;;;;;;;;5090447;28;20481;-68
2022/09/23 10:34:45;;;;;;;12.35;9.68;;;;;;;;;;5091447;28;20385;-68
2022/09/23 10:37:16;;;;;;;12.25;8.65;;;;;;;;;;5108387;28;20043;-67
2022/09/23 10:48:13;;;;;;;12.27;8.95;;;;;;;;;;5112806;28;20044;-68
2022/09/23 10:50:43;;;;;;;13.70;8.63;;;;;;;;;;5112827;28;20122;-68
2022/09/23 10:53:18;;;;;;;14.48;9.55;;;;;;;;;;5095207;28;20047;-67
2022/09/23 10:55:50;;;;;;;11.45;8.80;;;;;;;;;;5093785;28;20057;-67
2022/09/23 10:58:27;;;;;;;11.90;8.95;;;;;;;;;;5112727;28;20039;-68
2022/09/23 11:01:12;;;;;;;12.82;9.25;;;;;;;;;;5094154;28;20071;-69
2022/09/23 11:04:08;;;;;;;12.52;9.90;;;;;;;;;;5094533;28;20039;-69
2022/09/23 11:06:43;;;;;;;13.98;9.52;;;;;;;;;;5090848;28;20047;-69
2022/09/23 11:09:28;;;;;;;13.70;10.18;;;;;;;;;;5112152;28;20170;-69
2022/09/23 11:12:08;;;;;;;14.55;10.05;;;;;;;;;;5094187;28;20538;-69
2022/09/23 11:14:54;;;;;;;10.77;9.57;;;;;;;;;;5113610;28;20036;-69
2022/09/23 11:17:24;;;;;;;12.70;10.30;;;;;;;;;;5069248;28;20062;-67
2022/09/23 11:19:50;;;;;;;12.80;9.77;;;;;;;;;;5112914;28;20100;-67
2022/09/23 11:22:34;;;;;;;13.27;9.95;;;;;;;;;;5085859;28;20048;-67
2022/09/23 11:25:10;;;;;;;15.75;10.13;;;;;;;;;;5105960;28;20485;-68
2022/09/23 11:27:49;;;;;;;13.13;10.00;;;;;;;;;;5111899;28;20063;-67
2022/09/23 11:30:18;;;;;;;13.60;10.43;;;;;;;;;;5112667;28;20059;-68
2022/09/23 11:33:03;;;;;;;15.25;11.15;;;;;;;;;;5110988;27;20047;-67
2022/09/23 11:35:49;;;;;;;15.15;10.35;;;;;;;;;;5111355;28;20614;-68
2022/09/23 11:38:26;;;;;;;14.98;10.63;;;;;;;;;;5112166;28;20112;-68
2022/09/23 11:40:55;;;;;;;13.40;11.65;;;;;;;;;;5111613;28;20036;-67
2022/09/23 11:43:23;;;;;;;15.38;10.60;;;;;;;;;;5093451;28;20062;-68
2022/09/23 11:46:02;;;;;;;16.77;11.32;;;;;;;;;;5111405;28;20068;-68
2022/09/23 11:48:46;;;;;;;14.98;11.57;;;;;;;;;;5111588;28;20239;-68
2022/09/23 11:51:26;;;;;;;14.57;11.15;;;;;;;;;;5112530;28;20050;-67
2022/09/23 11:54:11;;;;;;;12.93;11.52;;;;;;;;;;5111191;28;20413;-68
2022/09/23 11:56:40;;;;;;;14.43;11.95;;;;;;;;;;5110504;28;20128;-68
2022/09/23 11:59:12;;;;;;;15.82;12.43;;;;;;;;;;5112126;28;20061;-68
2022/09/23 12:01:44;;;;;;;17.05;12.38;;;;;;;;;;5110983;28;20047;-68
2022/09/23 12:04:13;;;;;;;13.70;11.70;;;;;;;;;;5096909;28;20120;-69
2022/09/23 12:06:42;;;;;;;16.80;11.30;;;;;;;;;;5110843;28;20117;-66
2022/09/23 12:09:32;;;;;;;15.75;12.38;;;;;;;;;;5111119;28;20062;-68
2022/09/23 12:12:04;;;;;;;14.32;10.88;;;;;;;;;;5093842;28;20083;-67
2022/09/23 12:14:30;;;;;;;14.40;10.52;;;;;;;;;;5111468;28;20078;-68
2022/09/23 12:17:05;;;;;;;15.20;11.60;;;;;;;;;;5110449;28;20600;-68
2022/09/23 12:19:50;;;;;;;12.90;10.48;;;;;;;;;;5110865;28;20040;-68
2022/09/23 12:22:19;;;;;;;14.13;10.65;;;;;;;;;;5102840;28;20085;-68
2022/09/23 12:25:09;;;;;;;16.20;10.93;;;;;;;;;;5110422;28;20502;-67
2022/09/23 12:27:47;;;;;;;16.63;11.57;;;;;;;;;;5077783;28;20043;-67
2022/09/23 12:30:26;;;;;;;16.35;10.50;;;;;;;;;;5111966;28;20394;-66
2022/09/23 12:32:53;;;;;;;15.00;10.35;;;;;;;;;;5110345;28;20595;-67
2022/09/23 12:35:27;;;;;;;17.25;11.15;;;;;;;;;;5111223;28;20043;-67
2022/09/23 12:37:53;;;;;;;12.82;10.90;;;;;;;;;;5110246;28;20482;-68
2022/09/23 12:40:22;;;;;;;17.55;11.23;;;;;;;;;;5092608;28;20044;-68
2022/09/23 12:42:49;;;;;;;13.23;9.88;;;;;;;;;;5111425;28;20533;-67
2022/09/23 12:45:18;;;;;;;15.68;9.77;;;;;;;;;;5110362;28;20177;-67
2022/09/23 12:47:44;;;;;;;12.98;10.32;;;;;;;;;;5092063;28;20047;-68
2022/09/23 12:50:29;;;;;;;14.60;10.93;;;;;;;;;;5110799;28;20043;-68
2022/09/23 12:52:56;;;;;;;12.95;9.63;;;;;;;;;;5110240;28;20118;-68
2022/09/23 12:55:22;;;;;;;12.10;9.05;;;;;;;;;;5110438;28;20431;-68
2022/09/23 12:57:48;;;;;;;11.27;9.38;;;;;;;;;;5110511;28;20047;-68
2022/09/23 13:00:21;;;;;;;11.77;9.95;;;;;;;;;;5109768;28;20035;-67
2022/09/23 13:06:37;;;;;;;13.13;9.57;;;;;;;;;;5110963;28;20389;-67
2022/09/23 13:08:38;;;;;;;13.90;9.98;;;;;;;;;;5110044;28;20082;-67
2022/09/23 13:11:05;;;;;;;17.98;11.43;;;;;;;;;;5111130;28;20098;-67
2022/09/23 13:13:37;;;;;;;14.68;11.10;;;;;;;;;;5111013;28;20050;-67
2022/09/23 13:16:11;;;;;;;18.58;11.88;;;;;;;;;;5109561;28;20051;-67
2022/09/23 13:19:01;;;;;;;17.83;11.82;;;;;;;;;;5090617;28;20185;-67
2022/09/23 13:21:43;;;;;;;18.70;11.55;;;;;;;;;;5090615;28;20040;-67
2022/09/23 13:24:12;;;;;;;16.48;11.73;;;;;;;;;;5100494;28;20040;-67
2022/09/23 13:26:49;;;;;;;18.25;11.88;;;;;;;;;;5102685;28;20040;-67
2022/09/23 13:29:32;;;;;;;17.63;11.70;;;;;;;;;;5110677;28;20075;-68
2022/09/23 13:31:59;;;;;;;15.07;11.95;;;;;;;;;;5110484;28;20122;-68
2022/09/23 13:34:26;;;;;;;17.38;11.60;;;;;;;;;;5110722;28;20523;-68
2022/09/23 13:36:52;;;;;;;13.38;10.70;;;;;;;;;;5109166;28;20089;-68
2022/09/23 13:39:26;;;;;;;15.65;12.25;;;;;;;;;;5110489;28;20535;-68
2022/09/23 13:41:53;;;;;;;16.33;11.38;;;;;;;;;;5110629;28;20047;-68
2022/09/23 13:44:19;;;;;;;16.83;11.18;;;;;;;;;;5110765;28;20085;-68
2022/09/23 13:46:57;;;;;;;13.48;11.13;;;;;;;;;;5088671;28;20040;-68
2022/09/23 13:49:24;;;;;;;15.45;11.70;;;;;;;;;;5098809;28;20089;-68
2022/09/23 13:51:52;;;;;;;16.05;11.52;;;;;;;;;;5110560;28;20066;-68
2022/09/23 13:54:35;;;;;;;17.85;12.32;;;;;;;;;;5109775;28;20036;-68
2022/09/23 13:57:02;;;;;;;19.48;12.52;;;;;;;;;;5108944;28;20502;-67
2022/09/23 13:59:29;;;;;;;18.58;13.10;;;;;;;;;;5109085;28;20051;-67
2022/09/23 14:02:02;;;;;;;18.52;12.55;;;;;;;;;;5110373;28;20415;-67
2022/09/23 14:04:29;;;;;;;18.13;12.93;;;;;;;;;;5110424;28;20032;-67
2022/09/23 14:06:55;;;;;;;17.35;12.80;;;;;;;;;;5108878;28;20097;-67
2022/09/23 14:09:24;;;;;;;18.85;13.15;;;;;;;;;;5109927;28;20497;-67
2022/09/23 14:11:51;;;;;;;21.40;12.48;;;;;;;;;;5110494;28;20500;-67
2022/09/23 14:14:18;;;;;;;19.77;12.77;;;;;;;;;;5109782;28;20121;-67
2022/09/23 14:16:44;;;;;;;14.60;12.30;;;;;;;;;;5109034;28;20454;-67
2022/09/23 14:19:16;;;;;;;18.00;12.30;;;;;;;;;;5110317;28;20047;-67
2022/09/23 14:21:42;;;;;;;16.63;12.52;;;;;;;;;;5112997;28;20050;-67
2022/09/23 14:24:22;;;;;;;17.35;12.02;;;;;;;;;;5114596;28;20052;-67
2022/09/23 14:26:51;;;;;;;17.20;12.60;;;;;;;;;;5112803;28;20043;-67
2022/09/23 14:29:19;;;;;;;21.77;12.40;;;;;;;;;;5113371;28;20040;-67
2022/09/23 14:31:55;;;;;;;21.90;13.95;;;;;;;;;;5114239;28;20039;-67
2022/09/23 14:34:40;;;;;;;24.75;14.52;;;;;;;;;;5114187;28;20087;-67
2022/09/23 14:40:00;;;;;;;19.27;13.73;;;;;;;;;;5113561;28;20055;-67
2022/09/23 14:42:26;;;;;;;17.33;13.63;;;;;;;;;;5113576;28;20035;-67
2022/09/23 14:44:52;;;;;;;18.13;13.32;;;;;;;;;;5113381;28;20040;-67
2022/09/23 14:47:18;;;;;;;18.60;13.50;;;;;;;;;;5113313;28;20060;-67
2022/09/23 14:50:35;;;;;;;16.52;14.35;;;;;;;;;;5113911;28;20112;-67
2022/09/23 14:52:35;;;;;;;20.40;13.93;;;;;;;;;;5113381;28;20040;-67
2022/09/23 14:55:01;;;;;;;17.95;13.65;;;;;;;;;;5113710;28;20039;-68